Time;durP1;ratioP1;P1;durP2;ratioP2;P2;SDS_P1;SDS_P2;PMS_P1;PMS_P2;Temp;Humidity;BMP_temperature;BMP_pressure;BME280_temperature;BME280_humidity;BME280_pressure;Samples;Min_cycle;Max_cycle;Signal;HPM_P1;HPM_P2
2023/05/25 00:00:07;;;;;;;6.37;3.50;;;;;;;;;;4962300;28;20184;-66
2023/05/25 00:02:32;;;;;;;12.83;3.10;;;;;;;;;;4957939;28;20183;-69
2023/05/25 00:04:59;;;;;;;9.57;2.87;;;;;;;;;;4963152;28;20200;-69
2023/05/25 00:07:25;;;;;;;17.17;3.75;;;;;;;;;;4962705;28;20224;-69
2023/05/25 00:09:50;;;;;;;8.32;3.63;;;;;;;;;;4963657;28;20188;-68
2023/05/25 00:12:15;;;;;;;10.07;4.00;;;;;;;;;;4963177;28;20185;-69
2023/05/25 00:14:40;;;;;;;8.70;3.03;;;;;;;;;;4963218;28;20230;-68
2023/05/25 00:17:08;;;;;;;6.67;2.70;;;;;;;;;;4960697;28;20199;-68
2023/05/25 00:19:34;;;;;;;9.15;3.38;;;;;;;;;;4961925;28;20180;-67
2023/05/25 00:22:01;;;;;;;7.82;2.85;;;;;;;;;;4963532;28;20562;-68
2023/05/25 00:24:27;;;;;;;7.07;3.73;;;;;;;;;;5000144;22;20246;-75
2023/05/25 00:26:52;;;;;;;6.70;2.90;;;;;;;;;;5010234;28;20724;-75
2023/05/25 00:29:18;;;;;;;8.07;3.17;;;;;;;;;;5008766;28;20397;-75
2023/05/25 00:31:43;;;;;;;17.93;3.33;;;;;;;;;;5005045;28;20194;-75
2023/05/25 00:34:08;;;;;;;6.63;3.33;;;;;;;;;;5008164;28;20710;-75
2023/05/25 00:36:33;;;;;;;7.40;3.03;;;;;;;;;;4998255;28;20291;-76
2023/05/25 00:38:59;;;;;;;12.00;3.47;;;;;;;;;;5009880;28;20185;-75
2023/05/25 00:41:25;;;;;;;8.30;3.47;;;;;;;;;;5002873;28;20644;-75
2023/05/25 00:43:50;;;;;;;8.13;3.00;;;;;;;;;;5007218;28;20594;-75
2023/05/25 00:46:15;;;;;;;7.70;3.27;;;;;;;;;;5006897;28;20217;-76
2023/05/25 00:48:41;;;;;;;9.00;3.73;;;;;;;;;;5012056;28;20542;-75
2023/05/25 00:51:08;;;;;;;9.83;3.97;;;;;;;;;;5006308;28;20609;-76
2023/05/25 00:53:33;;;;;;;6.80;3.00;;;;;;;;;;4999552;28;20225;-76
2023/05/25 00:56:03;;;;;;;8.63;3.50;;;;;;;;;;5006986;28;20905;-75
2023/05/25 00:58:30;;;;;;;7.13;3.53;;;;;;;;;;5007543;28;20230;-75
2023/05/25 01:00:57;;;;;;;9.20;3.50;;;;;;;;;;5002262;28;20188;-75
2023/05/25 01:03:26;;;;;;;9.67;2.93;;;;;;;;;;5011799;28;20214;-75
2023/05/25 01:05:52;;;;;;;6.30;2.93;;;;;;;;;;5000990;28;20215;-75
2023/05/25 01:08:18;;;;;;;8.53;3.47;;;;;;;;;;5006816;28;20202;-75
2023/05/25 01:10:47;;;;;;;10.17;3.30;;;;;;;;;;5010828;28;20668;-75
2023/05/25 01:13:13;;;;;;;11.33;3.83;;;;;;;;;;5011223;28;20194;-75
2023/05/25 01:15:38;;;;;;;12.20;3.67;;;;;;;;;;5009933;28;20183;-75
2023/05/25 01:18:04;;;;;;;9.37;4.07;;;;;;;;;;5014420;28;20197;-75
2023/05/25 01:20:29;;;;;;;9.13;3.73;;;;;;;;;;5013096;28;20198;-75
2023/05/25 01:22:54;;;;;;;8.63;4.20;;;;;;;;;;5009221;28;20190;-75
2023/05/25 01:25:40;;;;;;;6.53;2.93;;;;;;;;;;5011105;28;20353;-75
2023/05/25 01:28:08;;;;;;;6.47;3.20;;;;;;;;;;5009878;28;20175;-75
2023/05/25 01:30:34;;;;;;;10.33;3.73;;;;;;;;;;5003568;28;20205;-75
2023/05/25 01:33:00;;;;;;;7.13;3.80;;;;;;;;;;5010354;28;20252;-75
2023/05/25 01:35:26;;;;;;;9.83;3.70;;;;;;;;;;5012087;28;20230;-75
2023/05/25 01:37:51;;;;;;;8.43;3.93;;;;;;;;;;5011080;28;20175;-75
2023/05/25 01:40:16;;;;;;;7.23;3.13;;;;;;;;;;5010524;28;20560;-76
2023/05/25 01:42:42;;;;;;;10.93;3.83;;;;;;;;;;5011462;28;20266;-75
2023/05/25 01:45:08;;;;;;;15.10;4.47;;;;;;;;;;5013155;28;20566;-75
2023/05/25 01:47:33;;;;;;;6.47;2.87;;;;;;;;;;5012770;28;21080;-76
2023/05/25 01:50:05;;;;;;;15.60;3.13;;;;;;;;;;5011290;28;20173;-75
2023/05/25 01:52:59;;;;;;;8.30;3.67;;;;;;;;;;5009580;28;20205;-76
2023/05/25 01:55:26;;;;;;;13.40;4.33;;;;;;;;;;4997820;28;20182;-75
2023/05/25 01:57:52;;;;;;;8.83;3.87;;;;;;;;;;5014973;28;20187;-75
2023/05/25 02:00:18;;;;;;;6.17;2.97;;;;;;;;;;5013235;28;20183;-75
2023/05/25 02:02:45;;;;;;;12.63;4.10;;;;;;;;;;5010375;28;20217;-75
2023/05/25 02:05:11;;;;;;;6.20;3.70;;;;;;;;;;5003458;28;20314;-75
2023/05/25 02:07:36;;;;;;;8.37;3.50;;;;;;;;;;5004057;28;20624;-75
2023/05/25 02:10:02;;;;;;;5.90;3.20;;;;;;;;;;5003845;28;20179;-75
2023/05/25 02:12:27;;;;;;;9.43;4.40;;;;;;;;;;5000867;28;20652;-75
2023/05/25 02:14:52;;;;;;;14.53;3.47;;;;;;;;;;5002137;28;20286;-75
2023/05/25 02:17:18;;;;;;;7.90;3.40;;;;;;;;;;5003278;28;20186;-76
2023/05/25 02:19:44;;;;;;;7.13;3.73;;;;;;;;;;5004549;28;20191;-75
2023/05/25 02:22:09;;;;;;;6.53;4.07;;;;;;;;;;5003882;28;20629;-76
2023/05/25 02:24:36;;;;;;;9.87;3.90;;;;;;;;;;5003993;28;20281;-76
2023/05/25 02:27:02;;;;;;;7.20;4.23;;;;;;;;;;5004707;28;20684;-75
2023/05/25 02:29:27;;;;;;;6.57;3.90;;;;;;;;;;5002463;28;20189;-76
2023/05/25 02:31:52;;;;;;;9.57;3.60;;;;;;;;;;5002661;28;20258;-76
2023/05/25 02:34:18;;;;;;;5.93;3.23;;;;;;;;;;5006820;28;20198;-76
2023/05/25 02:36:43;;;;;;;8.30;4.33;;;;;;;;;;5008029;28;20595;-74
2023/05/25 02:39:09;;;;;;;7.50;3.67;;;;;;;;;;5012220;28;20179;-76
2023/05/25 02:41:34;;;;;;;6.47;3.73;;;;;;;;;;5008856;28;20676;-77
2023/05/25 02:43:59;;;;;;;9.57;4.33;;;;;;;;;;5004556;28;20297;-76
2023/05/25 02:46:25;;;;;;;7.27;3.93;;;;;;;;;;5008646;28;20207;-76
2023/05/25 02:48:50;;;;;;;13.47;5.33;;;;;;;;;;5008511;28;20179;-76
2023/05/25 02:51:15;;;;;;;7.00;3.40;;;;;;;;;;5010960;28;20187;-74
2023/05/25 02:53:40;;;;;;;9.57;4.67;;;;;;;;;;5002261;28;20201;-74
2023/05/25 02:56:06;;;;;;;5.93;3.87;;;;;;;;;;4998415;28;20539;-75
2023/05/25 02:58:31;;;;;;;4.80;3.40;;;;;;;;;;5004066;28;20187;-74
2023/05/25 03:00:58;;;;;;;7.30;3.83;;;;;;;;;;5005684;28;20187;-74
2023/05/25 03:03:24;;;;;;;6.03;3.80;;;;;;;;;;5010262;28;20246;-74
2023/05/25 03:05:49;;;;;;;9.47;3.77;;;;;;;;;;5006635;28;20762;-75
2023/05/25 03:08:14;;;;;;;11.87;4.20;;;;;;;;;;5012301;28;20248;-75
2023/05/25 03:10:39;;;;;;;7.13;4.13;;;;;;;;;;5009865;28;20182;-75
2023/05/25 03:13:05;;;;;;;7.90;4.37;;;;;;;;;;5006767;28;20167;-75
2023/05/25 03:15:30;;;;;;;10.30;5.27;;;;;;;;;;5010698;28;20189;-75
2023/05/25 03:17:59;;;;;;;6.50;4.33;;;;;;;;;;5012373;28;20190;-75
2023/05/25 03:20:25;;;;;;;9.07;4.50;;;;;;;;;;5005246;28;20179;-74
2023/05/25 03:22:50;;;;;;;10.10;4.20;;;;;;;;;;5012738;28;20222;-75
2023/05/25 03:25:15;;;;;;;8.00;4.60;;;;;;;;;;5010328;28;20215;-75
2023/05/25 03:27:40;;;;;;;8.00;4.40;;;;;;;;;;5010405;28;20175;-75
2023/05/25 03:30:06;;;;;;;6.87;4.10;;;;;;;;;;5006691;28;20241;-75
2023/05/25 03:32:31;;;;;;;7.77;4.47;;;;;;;;;;5008059;28;20262;-75
2023/05/25 03:34:57;;;;;;;6.50;3.50;;;;;;;;;;5007638;28;20191;-75
2023/05/25 03:37:22;;;;;;;12.73;5.53;;;;;;;;;;5017294;28;20187;-75
2023/05/25 03:39:47;;;;;;;11.53;5.27;;;;;;;;;;5011763;28;20179;-75
2023/05/25 03:42:12;;;;;;;12.00;4.97;;;;;;;;;;5007605;28;20210;-75
2023/05/25 03:44:37;;;;;;;9.83;5.33;;;;;;;;;;5005591;28;20207;-75
2023/05/25 03:47:03;;;;;;;6.60;4.47;;;;;;;;;;5009805;28;20178;-75
2023/05/25 03:49:28;;;;;;;10.63;4.70;;;;;;;;;;5010637;28;20190;-75
2023/05/25 03:51:53;;;;;;;8.50;4.10;;;;;;;;;;5011410;28;20191;-75
2023/05/25 03:54:18;;;;;;;10.43;4.10;;;;;;;;;;5010056;28;20213;-76
2023/05/25 03:56:44;;;;;;;15.57;4.80;;;;;;;;;;4996791;28;20215;-75
2023/05/25 03:59:09;;;;;;;11.10;4.73;;;;;;;;;;5011277;28;20186;-75
2023/05/25 04:01:37;;;;;;;11.57;4.67;;;;;;;;;;5003504;28;20286;-75
2023/05/25 04:04:03;;;;;;;10.60;4.37;;;;;;;;;;5004934;28;20199;-76
2023/05/25 04:06:28;;;;;;;7.80;4.73;;;;;;;;;;5004785;28;20535;-75
2023/05/25 04:08:54;;;;;;;10.43;4.80;;;;;;;;;;5006299;28;20187;-75
2023/05/25 04:11:19;;;;;;;14.87;5.73;;;;;;;;;;5015731;28;20171;-75
2023/05/25 04:13:45;;;;;;;10.80;5.20;;;;;;;;;;5028942;28;20211;-75
2023/05/25 04:16:11;;;;;;;8.90;4.23;;;;;;;;;;5013776;28;20206;-75
2023/05/25 04:18:37;;;;;;;10.87;4.83;;;;;;;;;;5009162;28;20680;-76
2023/05/25 04:21:02;;;;;;;12.50;5.37;;;;;;;;;;5013863;28;20158;-75
2023/05/25 04:23:27;;;;;;;8.57;4.90;;;;;;;;;;5002810;28;20689;-76
2023/05/25 04:25:53;;;;;;;10.43;5.80;;;;;;;;;;5008707;28;20185;-75
2023/05/25 04:28:18;;;;;;;11.30;4.63;;;;;;;;;;5004592;28;20211;-75
2023/05/25 04:30:43;;;;;;;12.40;5.53;;;;;;;;;;4999132;28;20189;-75
2023/05/25 04:33:10;;;;;;;8.83;4.13;;;;;;;;;;5003285;28;20175;-76
2023/05/25 04:35:35;;;;;;;12.83;5.73;;;;;;;;;;5007540;28;20234;-76
2023/05/25 04:38:01;;;;;;;8.50;4.60;;;;;;;;;;5012000;28;20202;-75
2023/05/25 04:40:26;;;;;;;10.13;4.30;;;;;;;;;;5008210;28;20183;-75
2023/05/25 04:42:52;;;;;;;9.80;5.43;;;;;;;;;;5005773;28;20171;-75
2023/05/25 04:45:20;;;;;;;9.93;4.38;;;;;;;;;;5007281;28;20223;-75
2023/05/25 04:47:46;;;;;;;9.23;4.18;;;;;;;;;;5006869;28;20422;-76
2023/05/25 04:50:11;;;;;;;9.50;3.80;;;;;;;;;;5006245;28;20713;-76
2023/05/25 04:52:36;;;;;;;8.68;4.43;;;;;;;;;;5002803;28;20182;-76
2023/05/25 04:55:02;;;;;;;8.30;4.10;;;;;;;;;;5005660;28;20680;-76
2023/05/25 04:57:27;;;;;;;7.90;4.50;;;;;;;;;;4998626;28;20210;-75
2023/05/25 04:59:53;;;;;;;8.85;4.75;;;;;;;;;;5004909;28;20275;-75
2023/05/25 05:02:18;;;;;;;13.82;4.35;;;;;;;;;;5005356;28;20539;-75
2023/05/25 05:04:43;;;;;;;8.73;3.65;;;;;;;;;;5005782;28;20290;-75
2023/05/25 05:07:08;;;;;;;7.32;3.78;;;;;;;;;;5011163;28;20191;-75
2023/05/25 05:09:34;;;;;;;9.18;4.25;;;;;;;;;;5012554;28;20554;-75
2023/05/25 05:12:00;;;;;;;7.13;4.03;;;;;;;;;;5010768;28;20194;-76
2023/05/25 05:14:26;;;;;;;9.00;4.65;;;;;;;;;;5011405;28;20573;-74
2023/05/25 05:16:51;;;;;;;10.85;5.43;;;;;;;;;;5006102;28;20210;-74
2023/05/25 05:19:16;;;;;;;15.73;4.70;;;;;;;;;;5010454;28;20211;-74
2023/05/25 05:21:41;;;;;;;10.23;4.10;;;;;;;;;;5013158;28;20277;-74
2023/05/25 05:24:07;;;;;;;10.10;3.92;;;;;;;;;;5010136;28;20215;-73
2023/05/25 05:26:32;;;;;;;8.38;4.10;;;;;;;;;;5004474;28;20186;-74
2023/05/25 05:28:57;;;;;;;12.15;3.92;;;;;;;;;;5018603;28;20598;-75
2023/05/25 05:31:23;;;;;;;7.47;4.40;;;;;;;;;;5009655;28;20221;-75
2023/05/25 05:33:48;;;;;;;8.03;4.90;;;;;;;;;;5012575;28;20207;-75
2023/05/25 05:36:13;;;;;;;10.60;3.95;;;;;;;;;;5010049;28;20266;-75
2023/05/25 05:38:40;;;;;;;10.80;4.13;;;;;;;;;;5012341;28;20229;-75
2023/05/25 05:41:12;;;;;;;6.35;3.60;;;;;;;;;;5005391;28;20274;-75
2023/05/25 05:43:38;;;;;;;7.90;3.45;;;;;;;;;;5005518;28;20701;-75
2023/05/25 05:46:03;;;;;;;6.60;3.80;;;;;;;;;;5003697;28;20179;-75
2023/05/25 05:48:28;;;;;;;8.55;4.28;;;;;;;;;;5020639;28;20695;-75
2023/05/25 05:50:54;;;;;;;11.18;3.95;;;;;;;;;;5013051;28;20648;-75
2023/05/25 05:53:19;;;;;;;12.07;3.47;;;;;;;;;;5012759;28;20203;-75
2023/05/25 05:55:45;;;;;;;11.00;3.63;;;;;;;;;;5008862;28;20207;-75
2023/05/25 05:58:10;;;;;;;13.77;3.53;;;;;;;;;;5005926;28;20167;-75
2023/05/25 06:00:35;;;;;;;14.00;4.57;;;;;;;;;;4997740;28;20179;-75
2023/05/25 06:03:00;;;;;;;11.05;3.50;;;;;;;;;;5002915;28;20321;-76
2023/05/25 06:05:25;;;;;;;10.80;3.88;;;;;;;;;;5009348;28;20182;-75
2023/05/25 06:07:51;;;;;;;13.70;4.15;;;;;;;;;;5011952;28;20189;-75
2023/05/25 06:10:16;;;;;;;8.68;4.28;;;;;;;;;;5008690;28;20676;-75
2023/05/25 06:12:41;;;;;;;8.70;3.22;;;;;;;;;;5008355;28;20617;-75
2023/05/25 06:15:07;;;;;;;5.03;2.90;;;;;;;;;;5010575;28;20202;-75
2023/05/25 06:17:32;;;;;;;12.10;3.42;;;;;;;;;;5011870;28;20517;-75
2023/05/25 06:19:58;;;;;;;9.73;3.47;;;;;;;;;;5010454;28;20203;-75
2023/05/25 06:22:26;;;;;;;19.88;3.97;;;;;;;;;;5009220;28;20179;-75
2023/05/25 06:24:51;;;;;;;6.95;3.08;;;;;;;;;;5007747;22;20665;-68
2023/05/25 06:27:17;;;;;;;8.77;3.38;;;;;;;;;;4988302;28;20237;-69
2023/05/25 06:29:42;;;;;;;5.80;2.90;;;;;;;;;;4990105;28;20187;-68
2023/05/25 06:32:09;;;;;;;5.43;2.80;;;;;;;;;;4986564;28;20262;-68
2023/05/25 06:34:34;;;;;;;4.45;2.78;;;;;;;;;;4991272;28;20207;-68
2023/05/25 06:37:00;;;;;;;12.48;3.13;;;;;;;;;;4986411;28;20210;-68
2023/05/25 06:39:25;;;;;;;7.20;3.08;;;;;;;;;;4981544;28;20672;-68
2023/05/25 06:41:51;;;;;;;4.63;3.00;;;;;;;;;;4983385;28;20186;-69
2023/05/25 06:44:16;;;;;;;13.35;3.33;;;;;;;;;;4982896;28;20804;-69
2023/05/25 06:46:41;;;;;;;12.55;3.60;;;;;;;;;;4984531;28;20278;-68
2023/05/25 06:49:06;;;;;;;10.25;3.67;;;;;;;;;;4984273;28;20187;-67
2023/05/25 06:51:32;;;;;;;5.85;2.75;;;;;;;;;;4984155;28;20298;-68
2023/05/25 06:53:57;;;;;;;7.00;3.28;;;;;;;;;;4981750;28;20288;-69
2023/05/25 06:56:22;;;;;;;5.60;2.80;;;;;;;;;;4983967;28;20314;-67
2023/05/25 06:58:48;;;;;;;11.02;2.92;;;;;;;;;;4981596;28;20274;-68
2023/05/25 07:01:13;;;;;;;6.45;3.00;;;;;;;;;;4978682;28;20226;-69
2023/05/25 07:03:39;;;;;;;5.03;2.72;;;;;;;;;;4983188;28;20180;-67
2023/05/25 07:06:04;;;;;;;9.68;3.75;;;;;;;;;;4983272;28;20640;-68
2023/05/25 07:08:30;;;;;;;7.88;3.33;;;;;;;;;;4983786;28;20234;-68
2023/05/25 07:10:55;;;;;;;7.15;3.53;;;;;;;;;;4983389;28;20188;-68
2023/05/25 07:13:20;;;;;;;8.18;3.03;;;;;;;;;;4987854;28;20700;-68
2023/05/25 07:15:46;;;;;;;6.53;3.40;;;;;;;;;;4988594;28;20207;-68
2023/05/25 07:18:11;;;;;;;8.45;3.17;;;;;;;;;;4990075;28;20853;-67
2023/05/25 07:20:38;;;;;;;6.40;3.08;;;;;;;;;;4988451;28;20207;-68
2023/05/25 07:23:03;;;;;;;5.78;3.03;;;;;;;;;;4988862;28;20183;-68
2023/05/25 07:25:28;;;;;;;8.95;2.85;;;;;;;;;;4988413;28;20249;-68
2023/05/25 07:27:54;;;;;;;8.35;2.75;;;;;;;;;;4988060;28;20172;-68
2023/05/25 07:30:19;;;;;;;7.30;2.10;;;;;;;;;;4985302;28;20215;-68
2023/05/25 07:32:45;;;;;;;4.22;1.92;;;;;;;;;;4989731;28;20183;-68
2023/05/25 07:35:10;;;;;;;5.35;1.92;;;;;;;;;;4990643;28;20195;-68
2023/05/25 07:37:35;;;;;;;5.18;2.03;;;;;;;;;;4981452;28;20230;-68
2023/05/25 07:40:00;;;;;;;4.35;2.30;;;;;;;;;;4985411;28;20190;-68
2023/05/25 07:42:32;;;;;;;6.93;2.20;;;;;;;;;;4994877;28;20183;-68
2023/05/25 07:44:57;;;;;;;3.42;2.28;;;;;;;;;;4987013;28;20452;-68
2023/05/25 07:47:23;;;;;;;6.75;2.35;;;;;;;;;;4991064;28;20184;-68
2023/05/25 07:49:48;;;;;;;6.10;2.30;;;;;;;;;;4990717;28;20184;-68
2023/05/25 07:52:13;;;;;;;6.55;2.72;;;;;;;;;;4989920;28;20194;-68
2023/05/25 07:54:39;;;;;;;3.97;2.53;;;;;;;;;;4992220;28;20639;-68
2023/05/25 07:57:05;;;;;;;7.57;2.95;;;;;;;;;;4997280;28;20200;-68
2023/05/25 07:59:30;;;;;;;6.68;3.00;;;;;;;;;;4996693;28;20183;-68
2023/05/25 08:01:56;;;;;;;6.25;2.80;;;;;;;;;;4996585;28;20180;-68
2023/05/25 08:04:21;;;;;;;5.07;2.53;;;;;;;;;;4990900;28;20613;-68
2023/05/25 08:06:46;;;;;;;3.72;2.05;;;;;;;;;;4998668;28;20241;-68
2023/05/25 08:09:12;;;;;;;4.65;2.63;;;;;;;;;;4992397;28;20207;-68
2023/05/25 08:11:38;;;;;;;4.40;2.22;;;;;;;;;;4995638;28;20202;-68
2023/05/25 08:14:04;;;;;;;6.30;3.15;;;;;;;;;;4995486;28;20207;-68
2023/05/25 08:16:29;;;;;;;6.18;2.38;;;;;;;;;;5001558;28;20248;-68
2023/05/25 08:18:54;;;;;;;4.43;2.83;;;;;;;;;;4997549;28;20179;-68
2023/05/25 08:21:19;;;;;;;5.32;2.65;;;;;;;;;;5002187;28;20178;-68
2023/05/25 08:23:45;;;;;;;6.35;2.20;;;;;;;;;;4996747;28;20231;-68
2023/05/25 08:26:10;;;;;;;5.35;1.92;;;;;;;;;;4999673;28;20182;-69
2023/05/25 08:28:35;;;;;;;8.43;2.67;;;;;;;;;;4989218;28;20587;-66
2023/05/25 08:31:01;;;;;;;3.38;2.15;;;;;;;;;;4995466;28;20215;-68
2023/05/25 08:33:26;;;;;;;7.90;2.50;;;;;;;;;;5000293;28;20182;-69
2023/05/25 08:35:51;;;;;;;5.43;2.10;;;;;;;;;;5000699;28;20246;-68
2023/05/25 08:38:16;;;;;;;5.43;2.15;;;;;;;;;;4997515;28;20988;-69
2023/05/25 08:40:42;;;;;;;4.47;2.20;;;;;;;;;;4986052;28;20187;-68
2023/05/25 08:43:07;;;;;;;5.10;1.83;;;;;;;;;;4978661;28;20184;-69
2023/05/25 08:45:33;;;;;;;4.30;2.38;;;;;;;;;;4983841;28;20753;-68
2023/05/25 08:47:58;;;;;;;5.28;2.45;;;;;;;;;;4976955;28;20234;-68
2023/05/25 08:50:25;;;;;;;6.10;2.78;;;;;;;;;;4978936;28;20429;-68
2023/05/25 08:52:51;;;;;;;3.90;2.45;;;;;;;;;;4975977;28;20562;-67
2023/05/25 08:55:17;;;;;;;3.83;1.90;;;;;;;;;;4976461;28;20207;-67
2023/05/25 08:57:51;;;;;;;5.22;2.15;;;;;;;;;;4976741;28;20180;-68
2023/05/25 09:00:19;;;;;;;6.75;2.22;;;;;;;;;;4978061;28;20257;-68
2023/05/25 09:02:56;;;;;;;6.70;2.00;;;;;;;;;;4977061;28;20175;-68
2023/05/25 09:05:22;;;;;;;5.70;2.22;;;;;;;;;;4977583;28;20207;-67
2023/05/25 09:07:48;;;;;;;5.65;1.92;;;;;;;;;;4976748;28;20706;-66
2023/05/25 09:10:13;;;;;;;6.03;2.28;;;;;;;;;;4976521;28;20180;-68
2023/05/25 09:12:40;;;;;;;3.25;2.15;;;;;;;;;;4979591;28;20178;-68
2023/05/25 09:15:06;;;;;;;4.68;2.28;;;;;;;;;;4998825;28;20199;-68
2023/05/25 09:17:31;;;;;;;5.25;1.65;;;;;;;;;;5005758;28;20228;-68
2023/05/25 09:19:57;;;;;;;7.28;2.03;;;;;;;;;;4997488;28;20533;-67
2023/05/25 09:22:23;;;;;;;5.03;2.17;;;;;;;;;;4996159;28;20175;-68
2023/05/25 09:24:48;;;;;;;4.03;1.52;;;;;;;;;;4993403;28;20604;-67
2023/05/25 09:27:17;;;;;;;3.58;1.98;;;;;;;;;;4994899;28;20558;-68
2023/05/25 09:29:43;;;;;;;4.80;2.00;;;;;;;;;;4994212;28;20186;-67
2023/05/25 09:32:08;;;;;;;4.32;1.95;;;;;;;;;;4996127;28;20180;-68
2023/05/25 09:34:33;;;;;;;4.18;1.65;;;;;;;;;;4998111;28;20199;-68
2023/05/25 09:36:59;;;;;;;4.22;2.10;;;;;;;;;;4999417;28;20541;-67
2023/05/25 09:39:25;;;;;;;6.47;2.20;;;;;;;;;;4997115;28;20174;-67
2023/05/25 09:41:51;;;;;;;4.55;2.08;;;;;;;;;;4994255;28;20553;-68
2023/05/25 09:44:16;;;;;;;7.18;1.88;;;;;;;;;;5000324;28;20822;-68
2023/05/25 09:46:43;;;;;;;4.73;1.80;;;;;;;;;;4996944;28;20206;-67
2023/05/25 09:49:09;;;;;;;2.78;1.60;;;;;;;;;;4995164;28;20413;-67
2023/05/25 09:51:35;;;;;;;3.88;1.73;;;;;;;;;;4997737;28;20660;-68
2023/05/25 09:54:00;;;;;;;3.35;1.40;;;;;;;;;;4994288;28;20225;-67
2023/05/25 09:56:26;;;;;;;6.60;1.63;;;;;;;;;;4995010;28;20290;-67
2023/05/25 09:58:52;;;;;;;5.60;1.73;;;;;;;;;;4992763;28;20206;-67
2023/05/25 10:01:18;;;;;;;3.50;1.88;;;;;;;;;;4998530;28;20187;-68
2023/05/25 10:03:45;;;;;;;2.95;1.92;;;;;;;;;;4993231;28;20588;-68
2023/05/25 10:06:11;;;;;;;7.03;1.95;;;;;;;;;;4997569;28;20673;-67
2023/05/25 10:08:36;;;;;;;4.55;2.03;;;;;;;;;;5005237;28;20171;-68
2023/05/25 10:11:02;;;;;;;7.35;2.08;;;;;;;;;;4998445;28;20183;-67
2023/05/25 10:13:28;;;;;;;3.80;2.00;;;;;;;;;;4995431;28;20716;-68
2023/05/25 10:15:54;;;;;;;5.72;2.13;;;;;;;;;;4994902;28;20183;-68
2023/05/25 10:18:23;;;;;;;4.65;1.55;;;;;;;;;;4991644;28;20191;-68
2023/05/25 10:20:50;;;;;;;4.25;2.17;;;;;;;;;;4995331;28;20198;-68
2023/05/25 10:23:17;;;;;;;6.00;2.03;;;;;;;;;;5005049;28;20177;-68
2023/05/25 10:25:49;;;;;;;6.70;2.22;;;;;;;;;;4996850;28;20237;-68
2023/05/25 10:28:25;;;;;;;6.05;1.88;;;;;;;;;;4979993;28;20598;-68
2023/05/25 10:30:51;;;;;;;3.80;2.13;;;;;;;;;;4983551;28;20172;-67
2023/05/25 10:33:17;;;;;;;3.92;2.38;;;;;;;;;;4991517;28;20598;-68
2023/05/25 10:35:42;;;;;;;7.30;1.88;;;;;;;;;;4991315;28;20210;-67
2023/05/25 10:38:08;;;;;;;11.35;2.35;;;;;;;;;;4989224;28;20187;-66
2023/05/25 10:40:34;;;;;;;8.15;2.25;;;;;;;;;;4992648;28;20187;-68
2023/05/25 10:43:00;;;;;;;4.78;1.88;;;;;;;;;;4991686;28;20183;-68
2023/05/25 10:45:25;;;;;;;4.85;1.90;;;;;;;;;;4989573;28;20219;-67
2023/05/25 10:47:51;;;;;;;6.60;2.70;;;;;;;;;;4991818;28;20241;-68
2023/05/25 10:50:21;;;;;;;6.97;2.35;;;;;;;;;;4991965;28;20183;-67
2023/05/25 10:52:55;;;;;;;5.13;1.80;;;;;;;;;;4987944;28;20183;-67
2023/05/25 10:55:21;;;;;;;3.88;2.50;;;;;;;;;;4988132;28;20748;-67
2023/05/25 10:57:46;;;;;;;6.90;2.20;;;;;;;;;;4991008;28;20259;-68
2023/05/25 11:00:12;;;;;;;4.65;2.55;;;;;;;;;;4991818;28;20510;-67
2023/05/25 11:02:47;;;;;;;5.40;2.67;;;;;;;;;;4992329;28;20583;-68
2023/05/25 11:05:25;;;;;;;3.60;1.83;;;;;;;;;;4990088;28;20199;-68
2023/05/25 11:07:54;;;;;;;5.82;2.38;;;;;;;;;;4992343;28;20183;-69
2023/05/25 11:10:38;;;;;;;5.45;2.28;;;;;;;;;;4991166;28;20657;-69
2023/05/25 11:13:20;;;;;;;8.85;2.53;;;;;;;;;;4990977;28;20283;-68
2023/05/25 11:15:46;;;;;;;4.25;2.40;;;;;;;;;;4989954;28;20751;-68
2023/05/25 11:18:13;;;;;;;4.60;2.50;;;;;;;;;;4991193;28;20187;-68
2023/05/25 11:20:38;;;;;;;5.78;2.80;;;;;;;;;;4990193;28;20822;-67
2023/05/25 11:23:21;;;;;;;7.75;2.90;;;;;;;;;;4989431;28;20275;-68
2023/05/25 11:25:46;;;;;;;5.13;2.42;;;;;;;;;;4990961;28;20549;-69
2023/05/25 11:28:11;;;;;;;4.57;2.20;;;;;;;;;;4981542;28;20199;-67
2023/05/25 11:30:38;;;;;;;4.05;2.42;;;;;;;;;;4990874;28;20256;-67
2023/05/25 11:33:03;;;;;;;3.72;2.10;;;;;;;;;;4995015;28;20180;-68
2023/05/25 11:35:32;;;;;;;5.05;2.25;;;;;;;;;;4984061;28;20258;-68
2023/05/25 11:37:59;;;;;;;5.97;2.58;;;;;;;;;;4991578;28;20179;-67
2023/05/25 11:40:24;;;;;;;5.65;2.20;;;;;;;;;;4981433;28;20202;-68
2023/05/25 11:42:51;;;;;;;6.38;2.40;;;;;;;;;;4994185;28;20645;-66
2023/05/25 11:45:16;;;;;;;7.07;2.67;;;;;;;;;;4990664;28;20202;-68
2023/05/25 11:47:42;;;;;;;6.43;3.30;;;;;;;;;;4991074;28;20200;-66
2023/05/25 11:50:13;;;;;;;8.00;2.85;;;;;;;;;;4990683;28;20234;-68
2023/05/25 11:52:39;;;;;;;8.32;2.95;;;;;;;;;;4993738;28;20183;-67
2023/05/25 11:55:09;;;;;;;6.30;2.35;;;;;;;;;;4992211;28;20685;-67
2023/05/25 11:57:34;;;;;;;7.55;3.20;;;;;;;;;;4986366;28;20184;-66
2023/05/25 12:00:04;;;;;;;6.68;3.30;;;;;;;;;;4986769;28;20182;-70
2023/05/25 12:02:35;;;;;;;8.13;2.88;;;;;;;;;;4991620;28;20198;-68
2023/05/25 12:05:01;;;;;;;6.60;2.50;;;;;;;;;;4989612;28;20202;-68
2023/05/25 12:07:27;;;;;;;8.50;2.87;;;;;;;;;;4992080;28;20195;-68
2023/05/25 12:10:08;;;;;;;5.35;2.90;;;;;;;;;;4989859;28;20422;-67
2023/05/25 12:12:37;;;;;;;6.68;2.55;;;;;;;;;;4991042;28;20176;-68
2023/05/25 12:15:02;;;;;;;6.60;2.53;;;;;;;;;;4989428;28;20208;-70
2023/05/25 12:17:27;;;;;;;4.68;2.55;;;;;;;;;;4991521;28;20176;-68
2023/05/25 12:19:53;;;;;;;6.63;2.42;;;;;;;;;;4989110;28;20176;-67
2023/05/25 12:22:18;;;;;;;3.60;1.83;;;;;;;;;;4994714;28;20187;-69
2023/05/25 12:24:43;;;;;;;5.18;2.22;;;;;;;;;;5007226;22;20239;-73
2023/05/25 12:27:18;;;;;;;5.45;2.55;;;;;;;;;;5003328;28;20582;-73
2023/05/25 12:29:44;;;;;;;6.32;2.05;;;;;;;;;;4999716;28;20171;-73
2023/05/25 12:32:09;;;;;;;6.72;2.35;;;;;;;;;;5001447;28;20167;-74
2023/05/25 12:34:35;;;;;;;4.47;2.50;;;;;;;;;;5011783;28;20249;-74
2023/05/25 12:37:00;;;;;;;8.48;2.17;;;;;;;;;;5004638;28;20175;-73
2023/05/25 12:39:28;;;;;;;7.10;2.40;;;;;;;;;;5008584;28;20255;-74
2023/05/25 12:41:54;;;;;;;5.50;1.80;;;;;;;;;;5009544;28;20570;-74
2023/05/25 12:44:24;;;;;;;9.57;3.65;;;;;;;;;;5001465;28;20193;-74
2023/05/25 12:46:51;;;;;;;6.95;2.00;;;;;;;;;;5009413;28;20590;-74
2023/05/25 12:49:27;;;;;;;8.68;2.60;;;;;;;;;;5008587;28;20202;-74
2023/05/25 12:51:52;;;;;;;4.50;1.83;;;;;;;;;;5009079;28;20716;-74
2023/05/25 12:54:36;;;;;;;5.22;1.25;;;;;;;;;;5008142;28;20298;-74
2023/05/25 12:57:02;;;;;;;5.00;2.10;;;;;;;;;;5010071;28;20532;-73
2023/05/25 12:59:29;;;;;;;4.95;2.00;;;;;;;;;;5002227;28;20187;-75
2023/05/25 13:01:54;;;;;;;4.60;1.58;;;;;;;;;;5011399;28;20179;-74
2023/05/25 13:04:20;;;;;;;5.45;1.52;;;;;;;;;;5012780;28;20211;-74
2023/05/25 13:06:45;;;;;;;6.65;2.17;;;;;;;;;;5012703;28;20210;-74
2023/05/25 13:09:10;;;;;;;4.20;2.10;;;;;;;;;;5012950;28;20185;-75
2023/05/25 13:11:36;;;;;;;7.90;2.22;;;;;;;;;;5015087;28;20179;-74
2023/05/25 13:14:01;;;;;;;6.93;2.67;;;;;;;;;;5014146;28;20281;-73
2023/05/25 13:16:28;;;;;;;10.23;3.22;;;;;;;;;;5016207;28;20187;-73
2023/05/25 13:18:53;;;;;;;9.05;2.05;;;;;;;;;;5012670;28;20187;-75
2023/05/25 13:21:18;;;;;;;3.97;1.83;;;;;;;;;;5011572;28;20228;-75
2023/05/25 13:23:43;;;;;;;7.65;2.75;;;;;;;;;;5012623;28;20261;-75
2023/05/25 13:26:09;;;;;;;7.68;2.05;;;;;;;;;;5012201;28;20252;-73
2023/05/25 13:28:34;;;;;;;7.47;2.20;;;;;;;;;;5011947;28;20552;-74
2023/05/25 13:30:59;;;;;;;8.23;1.98;;;;;;;;;;5003763;28;20187;-74
2023/05/25 13:33:25;;;;;;;7.70;2.40;;;;;;;;;;5006876;28;20179;-74
2023/05/25 13:36:06;;;;;;;5.53;1.83;;;;;;;;;;5012736;28;20207;-74
2023/05/25 13:38:32;;;;;;;6.70;2.33;;;;;;;;;;5005971;28;20968;-75
2023/05/25 13:40:57;;;;;;;4.93;2.00;;;;;;;;;;5009323;28;20190;-75
2023/05/25 13:43:22;;;;;;;3.45;1.40;;;;;;;;;;5013675;28;20175;-74
2023/05/25 13:45:47;;;;;;;8.35;2.35;;;;;;;;;;5011639;28;20210;-75
2023/05/25 13:48:13;;;;;;;9.68;2.55;;;;;;;;;;5011819;28;20186;-74
2023/05/25 13:50:38;;;;;;;10.47;2.20;;;;;;;;;;5015541;28;20276;-74
2023/05/25 13:53:03;;;;;;;8.00;3.13;;;;;;;;;;5012991;28;20424;-75
2023/05/25 13:55:28;;;;;;;7.00;2.40;;;;;;;;;;5010276;28;20506;-74
2023/05/25 13:57:53;;;;;;;11.07;2.50;;;;;;;;;;5011727;28;20915;-73
2023/05/25 14:00:19;;;;;;;10.15;3.03;;;;;;;;;;4999270;28;20475;-74
2023/05/25 14:02:44;;;;;;;5.40;2.42;;;;;;;;;;5007283;28;20210;-74
2023/05/25 14:05:09;;;;;;;8.60;2.87;;;;;;;;;;5010914;28;20217;-74
2023/05/25 14:07:35;;;;;;;10.38;2.78;;;;;;;;;;5013327;28;20887;-74
2023/05/25 14:10:00;;;;;;;11.23;3.28;;;;;;;;;;5010442;28;20298;-74
2023/05/25 14:12:25;;;;;;;6.20;1.67;;;;;;;;;;5004471;28;20211;-74
2023/05/25 14:14:50;;;;;;;7.32;3.20;;;;;;;;;;5005196;28;20748;-74
2023/05/25 14:17:15;;;;;;;7.80;2.80;;;;;;;;;;5011983;28;20629;-74
2023/05/25 14:19:41;;;;;;;10.97;3.13;;;;;;;;;;5015286;28;20418;-73
2023/05/25 14:22:06;;;;;;;6.90;2.50;;;;;;;;;;5015060;28;20432;-74
2023/05/25 14:24:31;;;;;;;11.32;2.60;;;;;;;;;;5010901;28;20463;-74
2023/05/25 14:26:56;;;;;;;4.83;2.33;;;;;;;;;;5011713;28;20227;-74
2023/05/25 14:29:22;;;;;;;9.27;2.67;;;;;;;;;;5003143;28;20953;-74
2023/05/25 14:31:47;;;;;;;10.02;2.83;;;;;;;;;;5014360;28;20444;-74
2023/05/25 14:34:12;;;;;;;11.80;2.75;;;;;;;;;;5014093;28;20207;-75